createdAt,value
2023-01-21T00:00:54.831Z,-1.60
2023-01-21T00:05:48.245Z,-2.00
2023-01-21T00:10:43.166Z,-1.90
2023-01-21T00:15:37.906Z,-1.90
2023-01-21T00:20:31.359Z,-2.20
2023-01-21T00:25:24.769Z,-2.10
2023-01-21T00:30:19.991Z,-1.90
2023-01-21T00:35:13.383Z,-2.00
2023-01-21T00:40:09.555Z,-2.50
2023-01-21T00:45:02.878Z,-2.90
2023-01-21T00:49:57.634Z,-2.80
2023-01-21T00:54:50.974Z,-2.70
2023-01-21T00:59:44.251Z,-2.90
2023-01-21T01:04:38.068Z,-2.70
2023-01-21T01:09:33.235Z,-2.60
2023-01-21T01:14:26.774Z,-2.60
2023-01-21T01:19:20.248Z,-2.60
2023-01-21T01:24:13.769Z,-2.60
2023-01-21T01:29:08.802Z,-2.70
2023-01-21T01:34:02.261Z,-2.70
2023-01-21T01:38:56.389Z,-2.60
2023-01-21T01:44:02.119Z,-2.50
2023-01-21T01:49:06.609Z,-2.60
2023-01-21T01:54:01.433Z,-3.00
2023-01-21T01:58:55.464Z,-2.90
2023-01-21T02:03:58.621Z,-2.60
2023-01-21T02:08:53.853Z,-2.30
2023-01-21T02:13:53.380Z,-2.60
2023-01-21T02:19:00.963Z,-2.80
2023-01-21T02:24:35.400Z,-2.60
2023-01-21T02:29:52.431Z,-2.40
2023-01-21T04:45:13.151Z,-3.20
2023-01-21T05:29:13.770Z,-2.80
2023-01-21T05:39:14.623Z,-2.50
2023-01-21T05:44:09.568Z,-2.30
2023-01-21T05:49:04.397Z,-2.20
2023-01-21T05:53:57.784Z,-2.10
2023-01-21T05:58:51.161Z,-2.20
2023-01-21T06:03:44.474Z,-2.60
2023-01-21T06:08:39.178Z,-2.50
2023-01-21T06:13:32.574Z,-2.40
2023-01-21T06:18:26.522Z,-2.40
2023-01-21T06:23:19.870Z,-2.60
2023-01-21T06:28:15.119Z,-3.00
2023-01-21T08:04:37.643Z,-2.60
2023-01-21T08:22:34.731Z,-2.50
2023-01-21T08:27:28.066Z,-2.30
2023-01-21T08:38:58.569Z,-2.10
2023-01-21T08:43:52.373Z,-2.00
2023-01-21T08:49:19.747Z,-2.10
2023-01-21T08:54:14.857Z,-2.10
2023-01-21T08:59:08.364Z,-1.80
2023-01-21T09:04:05.060Z,-1.60
2023-01-21T09:08:58.717Z,-1.50
2023-01-21T09:13:53.681Z,-1.50
2023-01-21T09:18:47.520Z,-1.40
2023-01-21T09:51:04.233Z,-1.40
2023-01-21T10:09:38.842Z,-1.00
2023-01-21T10:15:07.030Z,-1.00
2023-01-21T10:33:03.600Z,-0.80
2023-01-21T10:38:07.540Z,-0.90
2023-01-21T10:43:08.415Z,-0.60
2023-01-21T11:14:09.667Z,-0.80
2023-01-21T11:19:06.683Z,-0.90
2023-01-21T18:28:01.390Z,-1.00
2023-01-21T18:32:56.473Z,-0.90
2023-01-21T18:37:50.071Z,-0.90
2023-01-21T18:42:43.587Z,-0.90
2023-01-21T18:47:38.364Z,-0.90
2023-01-21T18:52:31.740Z,-0.70
2023-01-21T18:57:25.121Z,-0.70
2023-01-21T19:02:21.963Z,-0.70
2023-01-21T19:14:06.826Z,-0.60
2023-01-21T19:19:00.661Z,-0.60
2023-01-21T19:31:19.843Z,-0.70
2023-01-21T19:36:16.844Z,-0.70
2023-01-21T19:41:10.323Z,-0.80
2023-01-21T19:46:03.799Z,-0.80
2023-01-21T19:50:58.890Z,-0.80
2023-01-21T19:55:52.548Z,-0.90
2023-01-21T20:00:48.132Z,-1.00
2023-01-21T20:05:41.990Z,-1.00
2023-01-21T21:22:21.695Z,-0.90
2023-01-21T21:27:15.048Z,-0.80
2023-01-21T21:32:12.318Z,-0.90
2023-01-21T21:37:06.140Z,-0.90
2023-01-21T21:42:18.538Z,-0.90
2023-01-21T21:47:29.688Z,-1.00
2023-01-21T21:52:24.239Z,-1.10
2023-01-21T21:57:18.970Z,-1.10
2023-01-21T22:02:13.547Z,-1.00
2023-01-21T22:20:14.224Z,-1.10
2023-01-21T22:51:18.653Z,-1.00
2023-01-21T22:56:14.119Z,-1.00
2023-01-21T23:01:08.291Z,-1.00
2023-01-21T23:06:06.339Z,-1.20
2023-01-21T23:11:06.982Z,-1.10
2023-01-21T23:16:02.434Z,-1.10
2023-01-21T23:20:56.366Z,-1.20
2023-01-21T23:25:49.733Z,-1.30
2023-01-21T23:30:44.625Z,-1.30
2023-01-21T23:55:15.264Z,-1.20
